﻿ProjectID	SampleID	SampleType	TaxonomyID	UniqCodeType	UniqCode	SampleName	ScientificName	CommonName	CollectionYear	CollectionMonth	CollectionDay	SamplingTimeStartEnd	SamplingTimeAMPM	SamplingDuration	WeatherStartEnd	CollectionRegion	CollectionCountry	CollectionArea	CollectionLatitudeFrom	CollectionLatitudeTo	CollectionLongitudeFrom	CollectionLongitudeTo	Sex	TissueOrgan	TissueLipid	TissueMoist	Weight	WeightUnit	Length	LengthUnit	LengthType	GrowthStage	Age	Disease	TemperatureStartEnd	WaterTemperatureStartEnd	pH	DO	EC	EC_temp	Salinity	SS	WaterDepthM	TransparencyM	WaterColor	SedimentTemperatureStartEnd	SedimentDepthM	SedimentAppearance	SedimentColor	SedimentSurfaceColor	SedimentOdor	SedimentImpurities	SedimentMoistureOnSiteAnalysis	IgnitionLossOnSiteAnalysis	SoilDepthM	FlowRate	MeanPM10	MeanTotalSuspendedParticles	HumidityStartEnd	WindDirectionStartEnd	WindSpeedMSStartEnd	AmountOfCollectedAirStartEnd	Remarks	RegisterDate	UpdateDate
PRA000082	SAA004566	ST024				CC-1_2003	Sediment	"River sediment (close to urban areas)"	2003	9						Asia	Vietnam	"the HauRiver near Can Tho city"	10.03883333		105.7696667																										0.05																"Dry season"	2018/12/17	2018/12/17
PRA000082	SAA004567	ST024				CC-4_2003	Sediment	"River sediment (close to urban areas)"	2003	9						Asia	Vietnam	"the HauRiver near Can Tho city"	10.04286111		105.7851667																										0.05																"Dry season"	2018/12/17	2018/12/17
PRA000082	SAA004568	ST024				CC-7_2003	Sediment	"River sediment (close to urban areas)"	2003	9						Asia	Vietnam	"the HauRiver near Can Tho city"	10.02111111		105.7736389																										0.05																"Dry season"	2018/12/17	2018/12/17
PRA000082	SAA004569	ST024				NK-SE_2003	Sediment	"River sediment (close to urban areas)"	2003	9						Asia	Vietnam	"the HauRiver near Can Tho city"	10.03575		105.7903333																										0.05																"Dry season"	2018/12/17	2018/12/17
PRA000082	SAA004570	ST024				Hau-1_2003	Sediment	"River sediment"	2003	9						Asia	Vietnam	"along the Hau River"	9.743694444		106.0699167																										0.05																"Dry season"	2018/12/17	2018/12/17
PRA000082	SAA004571	ST024				Hau-2_2003	Sediment	"River sediment"	2003	9						Asia	Vietnam	"along the Hau River"	9.8435		105.9869722																										0.05																"Dry season"	2018/12/17	2018/12/17
PRA000082	SAA004572	ST024				Hau-3_2003	Sediment	"River sediment"	2003	9						Asia	Vietnam	"along the Hau River"	9.931638889		105.8980278																										0.05																"Dry season"	2018/12/17	2018/12/17
PRA000082	SAA004573	ST024				Hau-4_2003	Sediment	"River sediment"	2003	9						Asia	Vietnam	"along the Hau River"	10.04808333		105.7963333																										0.05																"Dry season"	2018/12/17	2018/12/17
PRA000082	SAA004574	ST024				Hau-5_2003	Sediment	"River sediment"	2003	9						Asia	Vietnam	"along the Hau River"	10.3875		105.4473611																										0.05																"Dry season"	2018/12/17	2018/12/17
PRA000082	SAA004575	ST024				Hau-6_2003	Sediment	"River sediment"	2003	9						Asia	Vietnam	"along the Hau River"	10.33811111		105.479																										0.05																"Dry season"	2018/12/17	2018/12/17
PRA000082	SAA004576	ST024				Hau-7_2003	Sediment	"River sediment"	2003	9						Asia	Vietnam	"along the Hau River"	10.18977778		105.6121667																										0.05																"Dry season"	2018/12/17	2018/12/17
PRA000082	SAA004577	ST024				Hau-8_2003	Sediment	"River sediment"	2003	9						Asia	Vietnam	"along the Hau River"	10.13958333		105.6682222																										0.05																"Dry season"	2018/12/17	2018/12/17
PRA000082	SAA004578	ST024				CC-7_2004	Sediment	"River sediment (close to urban areas)"	2004	5						Asia	Vietnam	"the HauRiver near Can Tho city"	10.02025		105.7733333																										0.05																"Rainy season"	2018/12/17	2018/12/17
PRA000082	SAA004579	ST024				Hau-1_2004	Sediment	"River sediment"	2004	5						Asia	Vietnam	"along the Hau River"	9.930916667		105.8966111																										0.05																"Rainy season"	2018/12/17	2018/12/17
PRA000082	SAA004580	ST024				Hau-2_2004	Sediment	"River sediment"	2004	5						Asia	Vietnam	"along the Hau River"	9.844277778		105.9863056																										0.05																"Rainy season"	2018/12/17	2018/12/17
PRA000082	SAA004581	ST024				Hau-3_2004	Sediment	"River sediment"	2004	5						Asia	Vietnam	"along the Hau River"	9.743055556		106.0695																										0.05																"Rainy season"	2018/12/17	2018/12/17
PRA000082	SAA004582	ST024				Hau-4_2004	Sediment	"River sediment"	2004	5						Asia	Vietnam	"along the Hau River"	10.03941667		105.8033889																										0.05																"Rainy season"	2018/12/17	2018/12/17
PRA000082	SAA004583	ST024				Hau-5_2004	Sediment	"River sediment"	2004	5						Asia	Vietnam	"along the Hau River"	10.38661111		105.4488333																										0.05																"Rainy season"	2018/12/17	2018/12/17
PRA000082	SAA004584	ST024				Hau-6_2004	Sediment	"River sediment"	2004	5						Asia	Vietnam	"along the Hau River"	10.33930556		105.4792222																										0.05																"Rainy season"	2018/12/17	2018/12/17
PRA000082	SAA004585	ST024				Hau-7_2004	Sediment	"River sediment"	2004	5						Asia	Vietnam	"along the Hau River"	10.18980556		105.6121944																										0.05																"Rainy season"	2018/12/17	2018/12/17
PRA000082	SAA004586	ST024				Hau-11_2004	Sediment	"River sediment"	2004	5						Asia	Vietnam	"along the Hau River"	10.70825		105.1286389																										0.05																"Rainy season"	2018/12/17	2018/12/17
PRA000082	SAA004587	ST024				Hau-12_2004	Sediment	"River sediment"	2004	5						Asia	Vietnam	"along the Hau River"	10.54786111		105.2977222																										0.05																"Rainy season"	2018/12/17	2018/12/17
